sensor_id;sensor_type;location;lat;lon;timestamp;P1;durP1;ratioP1;P2;durP2;ratioP2
24557;SDS011;12726;49.148;8.582;2022-08-21T00:01:52;3.35;;;1.80;;
24557;SDS011;12726;49.148;8.582;2022-08-21T00:04:38;3.45;;;1.60;;
24557;SDS011;12726;49.148;8.582;2022-08-21T00:07:25;6.03;;;1.58;;
24557;SDS011;12726;49.148;8.582;2022-08-21T00:10:11;3.60;;;1.48;;
24557;SDS011;12726;49.148;8.582;2022-08-21T00:12:57;3.45;;;1.60;;
24557;SDS011;12726;49.148;8.582;2022-08-21T00:15:42;3.03;;;1.67;;
24557;SDS011;12726;49.148;8.582;2022-08-21T00:18:28;3.50;;;1.63;;
24557;SDS011;12726;49.148;8.582;2022-08-21T00:21:15;3.55;;;1.45;;
24557;SDS011;12726;49.148;8.582;2022-08-21T00:24:02;4.53;;;1.80;;
24557;SDS011;12726;49.148;8.582;2022-08-21T00:26:49;3.40;;;1.70;;
24557;SDS011;12726;49.148;8.582;2022-08-21T00:29:36;4.57;;;1.90;;
24557;SDS011;12726;49.148;8.582;2022-08-21T00:32:23;2.50;;;1.63;;
24557;SDS011;12726;49.148;8.582;2022-08-21T00:35:11;4.40;;;1.85;;
24557;SDS011;12726;49.148;8.582;2022-08-21T00:37:59;5.93;;;1.92;;
24557;SDS011;12726;49.148;8.582;2022-08-21T00:40:49;7.55;;;2.00;;
24557;SDS011;12726;49.148;8.582;2022-08-21T00:43:37;4.95;;;1.73;;
24557;SDS011;12726;49.148;8.582;2022-08-21T00:46:24;4.55;;;1.95;;
24557;SDS011;12726;49.148;8.582;2022-08-21T00:49:09;4.20;;;1.70;;
24557;SDS011;12726;49.148;8.582;2022-08-21T00:51:57;3.45;;;1.95;;
24557;SDS011;12726;49.148;8.582;2022-08-21T00:54:46;3.78;;;1.73;;
24557;SDS011;12726;49.148;8.582;2022-08-21T00:57:36;6.15;;;1.70;;
24557;SDS011;12726;49.148;8.582;2022-08-21T01:00:26;4.10;;;1.80;;
24557;SDS011;12726;49.148;8.582;2022-08-21T01:03:19;4.55;;;1.45;;
24557;SDS011;12726;49.148;8.582;2022-08-21T01:06:07;3.38;;;1.80;;
24557;SDS011;12726;49.148;8.582;2022-08-21T01:08:53;3.10;;;1.58;;
24557;SDS011;12726;49.148;8.582;2022-08-21T01:11:39;7.20;;;1.85;;
24557;SDS011;12726;49.148;8.582;2022-08-21T01:14:27;7.13;;;1.90;;
24557;SDS011;12726;49.148;8.582;2022-08-21T01:17:14;4.03;;;1.85;;
24557;SDS011;12726;49.148;8.582;2022-08-21T01:20:08;2.78;;;1.83;;
24557;SDS011;12726;49.148;8.582;2022-08-21T01:22:57;5.63;;;1.67;;
24557;SDS011;12726;49.148;8.582;2022-08-21T01:25:43;3.65;;;1.92;;
24557;SDS011;12726;49.148;8.582;2022-08-21T01:28:29;4.35;;;1.85;;
24557;SDS011;12726;49.148;8.582;2022-08-21T01:31:17;6.32;;;1.98;;
24557;SDS011;12726;49.148;8.582;2022-08-21T01:34:07;3.67;;;1.90;;
24557;SDS011;12726;49.148;8.582;2022-08-21T01:36:53;7.00;;;2.25;;
24557;SDS011;12726;49.148;8.582;2022-08-21T01:39:41;6.80;;;2.33;;
24557;SDS011;12726;49.148;8.582;2022-08-21T01:42:27;4.32;;;1.90;;
24557;SDS011;12726;49.148;8.582;2022-08-21T01:45:13;3.97;;;1.83;;
24557;SDS011;12726;49.148;8.582;2022-08-21T01:48:00;3.97;;;1.58;;
24557;SDS011;12726;49.148;8.582;2022-08-21T01:50:46;7.93;;;2.42;;
24557;SDS011;12726;49.148;8.582;2022-08-21T01:53:32;4.97;;;1.90;;
24557;SDS011;12726;49.148;8.582;2022-08-21T01:56:21;5.28;;;2.10;;
24557;SDS011;12726;49.148;8.582;2022-08-21T01:59:08;3.15;;;2.05;;
24557;SDS011;12726;49.148;8.582;2022-08-21T02:01:54;2.97;;;1.98;;
24557;SDS011;12726;49.148;8.582;2022-08-21T02:04:39;4.97;;;2.00;;
24557;SDS011;12726;49.148;8.582;2022-08-21T02:07:25;6.63;;;2.15;;
24557;SDS011;12726;49.148;8.582;2022-08-21T02:10:12;4.75;;;2.33;;
24557;SDS011;12726;49.148;8.582;2022-08-21T02:13:02;4.78;;;1.90;;
24557;SDS011;12726;49.148;8.582;2022-08-21T02:15:47;5.75;;;2.28;;
24557;SDS011;12726;49.148;8.582;2022-08-21T02:18:33;3.55;;;1.80;;
24557;SDS011;12726;49.148;8.582;2022-08-21T02:21:19;4.43;;;2.00;;
24557;SDS011;12726;49.148;8.582;2022-08-21T02:24:05;4.28;;;2.10;;
24557;SDS011;12726;49.148;8.582;2022-08-21T02:26:51;3.47;;;2.20;;
24557;SDS011;12726;49.148;8.582;2022-08-21T02:29:38;2.85;;;1.70;;
24557;SDS011;12726;49.148;8.582;2022-08-21T02:32:24;8.27;;;2.63;;
24557;SDS011;12726;49.148;8.582;2022-08-21T02:35:10;5.50;;;1.90;;
24557;SDS011;12726;49.148;8.582;2022-08-21T02:37:57;6.03;;;1.83;;
24557;SDS011;12726;49.148;8.582;2022-08-21T02:40:47;3.97;;;2.22;;
24557;SDS011;12726;49.148;8.582;2022-08-21T02:43:33;3.60;;;1.80;;
24557;SDS011;12726;49.148;8.582;2022-08-21T02:46:22;3.15;;;1.92;;
24557;SDS011;12726;49.148;8.582;2022-08-21T02:49:07;5.22;;;2.35;;
24557;SDS011;12726;49.148;8.582;2022-08-21T02:51:52;8.68;;;2.58;;
24557;SDS011;12726;49.148;8.582;2022-08-21T02:54:38;4.00;;;2.13;;
24557;SDS011;12726;49.148;8.582;2022-08-21T02:57:23;7.60;;;2.45;;
24557;SDS011;12726;49.148;8.582;2022-08-21T03:00:10;3.47;;;2.20;;
24557;SDS011;12726;49.148;8.582;2022-08-21T03:02:58;5.13;;;2.40;;
24557;SDS011;12726;49.148;8.582;2022-08-21T03:05:44;5.55;;;2.40;;
24557;SDS011;12726;49.148;8.582;2022-08-21T03:08:30;7.72;;;2.42;;
24557;SDS011;12726;49.148;8.582;2022-08-21T03:11:15;6.07;;;2.88;;
24557;SDS011;12726;49.148;8.582;2022-08-21T03:14:03;5.15;;;2.15;;
24557;SDS011;12726;49.148;8.582;2022-08-21T03:16:49;4.00;;;2.20;;
24557;SDS011;12726;49.148;8.582;2022-08-21T03:19:36;4.68;;;2.55;;
24557;SDS011;12726;49.148;8.582;2022-08-21T03:22:21;5.45;;;2.40;;
24557;SDS011;12726;49.148;8.582;2022-08-21T03:25:07;5.05;;;2.10;;
24557;SDS011;12726;49.148;8.582;2022-08-21T03:27:54;4.20;;;2.47;;
24557;SDS011;12726;49.148;8.582;2022-08-21T03:30:39;3.92;;;2.42;;
24557;SDS011;12726;49.148;8.582;2022-08-21T03:33:25;4.88;;;2.45;;
24557;SDS011;12726;49.148;8.582;2022-08-21T03:36:12;7.85;;;2.92;;
24557;SDS011;12726;49.148;8.582;2022-08-21T03:38:58;5.28;;;2.60;;
24557;SDS011;12726;49.148;8.582;2022-08-21T03:41:43;3.28;;;2.20;;
24557;SDS011;12726;49.148;8.582;2022-08-21T03:44:29;5.85;;;2.55;;
24557;SDS011;12726;49.148;8.582;2022-08-21T03:47:14;4.78;;;2.53;;
24557;SDS011;12726;49.148;8.582;2022-08-21T03:50:00;3.35;;;2.35;;
24557;SDS011;12726;49.148;8.582;2022-08-21T03:52:47;6.25;;;3.25;;
24557;SDS011;12726;49.148;8.582;2022-08-21T03:55:32;5.90;;;2.75;;
24557;SDS011;12726;49.148;8.582;2022-08-21T03:58:18;8.00;;;2.75;;
24557;SDS011;12726;49.148;8.582;2022-08-21T04:01:06;4.43;;;2.47;;
24557;SDS011;12726;49.148;8.582;2022-08-21T04:03:51;5.50;;;3.03;;
24557;SDS011;12726;49.148;8.582;2022-08-21T04:06:36;4.28;;;2.72;;
24557;SDS011;12726;49.148;8.582;2022-08-21T04:09:23;3.05;;;2.40;;
24557;SDS011;12726;49.148;8.582;2022-08-21T04:12:09;3.67;;;2.60;;
24557;SDS011;12726;49.148;8.582;2022-08-21T04:14:55;3.95;;;2.30;;
24557;SDS011;12726;49.148;8.582;2022-08-21T04:17:41;4.80;;;2.55;;
24557;SDS011;12726;49.148;8.582;2022-08-21T04:20:29;4.13;;;2.45;;
24557;SDS011;12726;49.148;8.582;2022-08-21T04:23:15;5.80;;;2.90;;
24557;SDS011;12726;49.148;8.582;2022-08-21T04:26:02;3.60;;;2.42;;
24557;SDS011;12726;49.148;8.582;2022-08-21T04:28:48;4.50;;;2.40;;
24557;SDS011;12726;49.148;8.582;2022-08-21T04:31:34;2.85;;;2.17;;
24557;SDS011;12726;49.148;8.582;2022-08-21T04:34:21;4.18;;;2.53;;
24557;SDS011;12726;49.148;8.582;2022-08-21T04:37:07;3.78;;;2.47;;
24557;SDS011;12726;49.148;8.582;2022-08-21T04:39:52;2.83;;;2.20;;
24557;SDS011;12726;49.148;8.582;2022-08-21T04:42:42;4.65;;;1.90;;
24557;SDS011;12726;49.148;8.582;2022-08-21T04:45:29;4.68;;;2.25;;
24557;SDS011;12726;49.148;8.582;2022-08-21T04:48:18;5.68;;;2.25;;
24557;SDS011;12726;49.148;8.582;2022-08-21T04:51:06;4.55;;;2.45;;
24557;SDS011;12726;49.148;8.582;2022-08-21T04:53:57;5.47;;;2.78;;
24557;SDS011;12726;49.148;8.582;2022-08-21T04:56:47;5.30;;;2.72;;
24557;SDS011;12726;49.148;8.582;2022-08-21T04:59:37;6.50;;;2.38;;
24557;SDS011;12726;49.148;8.582;2022-08-21T05:02:25;4.05;;;2.60;;
24557;SDS011;12726;49.148;8.582;2022-08-21T05:05:11;4.32;;;2.50;;
24557;SDS011;12726;49.148;8.582;2022-08-21T05:07:57;6.05;;;2.20;;
24557;SDS011;12726;49.148;8.582;2022-08-21T05:10:45;6.13;;;2.47;;
24557;SDS011;12726;49.148;8.582;2022-08-21T05:13:31;3.38;;;2.60;;
24557;SDS011;12726;49.148;8.582;2022-08-21T05:16:18;6.25;;;2.85;;
24557;SDS011;12726;49.148;8.582;2022-08-21T05:19:03;6.95;;;2.67;;
24557;SDS011;12726;49.148;8.582;2022-08-21T05:21:49;7.53;;;2.50;;
24557;SDS011;12726;49.148;8.582;2022-08-21T05:24:35;8.80;;;3.05;;
24557;SDS011;12726;49.148;8.582;2022-08-21T05:27:21;5.07;;;2.72;;
24557;SDS011;12726;49.148;8.582;2022-08-21T05:30:07;4.47;;;2.60;;
24557;SDS011;12726;49.148;8.582;2022-08-21T05:32:57;4.95;;;3.03;;
24557;SDS011;12726;49.148;8.582;2022-08-21T05:35:44;4.65;;;2.58;;
24557;SDS011;12726;49.148;8.582;2022-08-21T05:38:29;7.40;;;2.85;;
24557;SDS011;12726;49.148;8.582;2022-08-21T05:41:15;3.83;;;2.80;;
24557;SDS011;12726;49.148;8.582;2022-08-21T05:44:00;7.35;;;2.83;;
24557;SDS011;12726;49.148;8.582;2022-08-21T05:46:45;5.18;;;3.08;;
24557;SDS011;12726;49.148;8.582;2022-08-21T05:49:32;3.28;;;2.25;;
24557;SDS011;12726;49.148;8.582;2022-08-21T05:52:18;4.07;;;2.50;;
24557;SDS011;12726;49.148;8.582;2022-08-21T05:55:05;4.80;;;2.20;;
24557;SDS011;12726;49.148;8.582;2022-08-21T05:57:51;4.85;;;2.50;;
24557;SDS011;12726;49.148;8.582;2022-08-21T06:00:37;4.72;;;2.47;;
24557;SDS011;12726;49.148;8.582;2022-08-21T06:03:24;6.13;;;2.60;;
24557;SDS011;12726;49.148;8.582;2022-08-21T06:06:13;5.45;;;2.67;;
24557;SDS011;12726;49.148;8.582;2022-08-21T06:08:59;5.38;;;2.28;;
24557;SDS011;12726;49.148;8.582;2022-08-21T06:11:44;7.15;;;2.85;;
24557;SDS011;12726;49.148;8.582;2022-08-21T06:14:30;8.82;;;2.60;;
24557;SDS011;12726;49.148;8.582;2022-08-21T06:17:15;7.97;;;2.40;;
24557;SDS011;12726;49.148;8.582;2022-08-21T06:20:01;7.15;;;2.40;;
24557;SDS011;12726;49.148;8.582;2022-08-21T06:22:48;6.72;;;2.97;;
24557;SDS011;12726;49.148;8.582;2022-08-21T06:25:34;5.20;;;2.20;;
24557;SDS011;12726;49.148;8.582;2022-08-21T06:28:20;6.88;;;2.25;;
24557;SDS011;12726;49.148;8.582;2022-08-21T06:31:16;6.68;;;2.28;;
24557;SDS011;12726;49.148;8.582;2022-08-21T06:34:07;6.68;;;2.13;;
24557;SDS011;12726;49.148;8.582;2022-08-21T06:36:52;6.68;;;2.17;;
24557;SDS011;12726;49.148;8.582;2022-08-21T06:39:40;4.75;;;2.45;;
24557;SDS011;12726;49.148;8.582;2022-08-21T06:42:25;5.05;;;2.10;;
24557;SDS011;12726;49.148;8.582;2022-08-21T06:45:11;4.32;;;2.22;;
24557;SDS011;12726;49.148;8.582;2022-08-21T06:47:56;4.30;;;1.98;;
24557;SDS011;12726;49.148;8.582;2022-08-21T06:50:42;5.63;;;2.22;;
24557;SDS011;12726;49.148;8.582;2022-08-21T06:53:27;9.25;;;2.70;;
24557;SDS011;12726;49.148;8.582;2022-08-21T06:56:15;6.22;;;2.10;;
24557;SDS011;12726;49.148;8.582;2022-08-21T06:59:00;3.40;;;1.90;;
24557;SDS011;12726;49.148;8.582;2022-08-21T07:01:46;6.93;;;2.63;;
24557;SDS011;12726;49.148;8.582;2022-08-21T07:04:32;5.70;;;2.33;;
24557;SDS011;12726;49.148;8.582;2022-08-21T07:07:17;5.18;;;2.45;;
24557;SDS011;12726;49.148;8.582;2022-08-21T07:10:03;8.90;;;2.30;;
24557;SDS011;12726;49.148;8.582;2022-08-21T07:12:50;6.82;;;2.13;;
24557;SDS011;12726;49.148;8.582;2022-08-21T07:15:36;9.70;;;2.03;;
24557;SDS011;12726;49.148;8.582;2022-08-21T07:18:22;5.28;;;2.30;;
24557;SDS011;12726;49.148;8.582;2022-08-21T07:21:08;4.88;;;2.30;;
24557;SDS011;12726;49.148;8.582;2022-08-21T07:23:53;7.03;;;2.50;;
24557;SDS011;12726;49.148;8.582;2022-08-21T07:26:39;4.85;;;2.30;;
24557;SDS011;12726;49.148;8.582;2022-08-21T07:29:26;4.50;;;2.35;;
24557;SDS011;12726;49.148;8.582;2022-08-21T07:32:14;5.22;;;2.20;;
24557;SDS011;12726;49.148;8.582;2022-08-21T07:35:02;5.82;;;2.10;;
24557;SDS011;12726;49.148;8.582;2022-08-21T07:37:48;5.10;;;2.40;;
24557;SDS011;12726;49.148;8.582;2022-08-21T07:40:34;6.72;;;2.33;;
24557;SDS011;12726;49.148;8.582;2022-08-21T07:43:20;6.78;;;2.40;;
24557;SDS011;12726;49.148;8.582;2022-08-21T07:46:10;4.20;;;2.63;;
24557;SDS011;12726;49.148;8.582;2022-08-21T07:48:56;6.32;;;2.35;;
24557;SDS011;12726;49.148;8.582;2022-08-21T07:51:41;4.68;;;2.40;;
24557;SDS011;12726;49.148;8.582;2022-08-21T07:54:27;8.35;;;3.20;;
24557;SDS011;12726;49.148;8.582;2022-08-21T07:57:13;7.05;;;2.78;;
24557;SDS011;12726;49.148;8.582;2022-08-21T07:59:58;4.95;;;1.92;;
24557;SDS011;12726;49.148;8.582;2022-08-21T08:02:45;7.88;;;3.13;;
24557;SDS011;12726;49.148;8.582;2022-08-21T08:05:33;6.63;;;2.90;;
24557;SDS011;12726;49.148;8.582;2022-08-21T08:08:20;6.80;;;2.95;;
24557;SDS011;12726;49.148;8.582;2022-08-21T08:11:06;5.03;;;2.33;;
24557;SDS011;12726;49.148;8.582;2022-08-21T08:13:54;8.20;;;2.80;;
24557;SDS011;12726;49.148;8.582;2022-08-21T08:16:41;8.32;;;2.70;;
24557;SDS011;12726;49.148;8.582;2022-08-21T08:19:28;6.10;;;2.63;;
24557;SDS011;12726;49.148;8.582;2022-08-21T08:22:14;6.20;;;2.47;;
24557;SDS011;12726;49.148;8.582;2022-08-21T08:25:03;5.60;;;2.53;;
24557;SDS011;12726;49.148;8.582;2022-08-21T08:27:49;5.63;;;2.30;;
24557;SDS011;12726;49.148;8.582;2022-08-21T08:30:35;6.28;;;2.50;;
24557;SDS011;12726;49.148;8.582;2022-08-21T08:33:20;5.43;;;2.35;;
24557;SDS011;12726;49.148;8.582;2022-08-21T08:36:11;4.80;;;2.28;;
24557;SDS011;12726;49.148;8.582;2022-08-21T08:38:58;5.97;;;2.25;;
24557;SDS011;12726;49.148;8.582;2022-08-21T08:41:44;9.07;;;2.58;;
24557;SDS011;12726;49.148;8.582;2022-08-21T08:44:35;9.45;;;2.47;;
24557;SDS011;12726;49.148;8.582;2022-08-21T08:47:20;7.00;;;2.90;;
24557;SDS011;12726;49.148;8.582;2022-08-21T08:50:07;6.53;;;2.55;;
24557;SDS011;12726;49.148;8.582;2022-08-21T08:52:58;7.95;;;2.53;;
24557;SDS011;12726;49.148;8.582;2022-08-21T08:55:47;7.55;;;2.47;;
24557;SDS011;12726;49.148;8.582;2022-08-21T08:58:37;6.53;;;3.22;;
24557;SDS011;12726;49.148;8.582;2022-08-21T09:01:25;6.70;;;3.03;;
24557;SDS011;12726;49.148;8.582;2022-08-21T09:04:11;5.15;;;2.47;;
24557;SDS011;12726;49.148;8.582;2022-08-21T09:07:00;8.48;;;3.33;;
24557;SDS011;12726;49.148;8.582;2022-08-21T09:10:04;6.00;;;2.53;;
24557;SDS011;12726;49.148;8.582;2022-08-21T09:12:59;5.70;;;2.63;;
24557;SDS011;12726;49.148;8.582;2022-08-21T09:16:05;7.13;;;2.90;;
24557;SDS011;12726;49.148;8.582;2022-08-21T09:19:01;6.15;;;2.88;;
24557;SDS011;12726;49.148;8.582;2022-08-21T09:21:55;8.25;;;2.80;;
24557;SDS011;12726;49.148;8.582;2022-08-21T09:24:49;5.47;;;2.42;;
24557;SDS011;12726;49.148;8.582;2022-08-21T09:27:45;8.90;;;2.33;;
24557;SDS011;12726;49.148;8.582;2022-08-21T09:30:31;5.93;;;2.60;;
24557;SDS011;12726;49.148;8.582;2022-08-21T09:33:17;5.95;;;2.95;;
24557;SDS011;12726;49.148;8.582;2022-08-21T09:36:02;7.47;;;2.70;;
24557;SDS011;12726;49.148;8.582;2022-08-21T09:38:51;5.60;;;2.95;;
24557;SDS011;12726;49.148;8.582;2022-08-21T09:41:39;9.80;;;3.35;;
24557;SDS011;12726;49.148;8.582;2022-08-21T09:44:27;5.82;;;2.70;;
24557;SDS011;12726;49.148;8.582;2022-08-21T09:47:18;6.65;;;3.05;;
24557;SDS011;12726;49.148;8.582;2022-08-21T09:50:08;6.38;;;2.63;;
24557;SDS011;12726;49.148;8.582;2022-08-21T09:52:57;10.40;;;3.15;;
24557;SDS011;12726;49.148;8.582;2022-08-21T09:55:48;7.97;;;2.55;;
24557;SDS011;12726;49.148;8.582;2022-08-21T09:58:54;5.38;;;2.42;;
24557;SDS011;12726;49.148;8.582;2022-08-21T10:01:43;6.97;;;2.83;;
24557;SDS011;12726;49.148;8.582;2022-08-21T10:04:32;5.47;;;2.50;;
24557;SDS011;12726;49.148;8.582;2022-08-21T10:07:20;6.10;;;2.42;;
24557;SDS011;12726;49.148;8.582;2022-08-21T10:10:08;8.80;;;2.67;;
24557;SDS011;12726;49.148;8.582;2022-08-21T10:13:12;6.45;;;2.55;;
24557;SDS011;12726;49.148;8.582;2022-08-21T10:16:08;7.97;;;2.50;;
24557;SDS011;12726;49.148;8.582;2022-08-21T10:19:09;4.73;;;2.10;;
24557;SDS011;12726;49.148;8.582;2022-08-21T10:22:08;6.28;;;2.65;;
24557;SDS011;12726;49.148;8.582;2022-08-21T10:25:06;5.90;;;3.08;;
24557;SDS011;12726;49.148;8.582;2022-08-21T10:27:59;8.13;;;2.63;;
24557;SDS011;12726;49.148;8.582;2022-08-21T10:30:49;7.32;;;2.47;;
24557;SDS011;12726;49.148;8.582;2022-08-21T10:33:38;6.18;;;2.50;;
24557;SDS011;12726;49.148;8.582;2022-08-21T10:36:33;6.43;;;2.45;;
24557;SDS011;12726;49.148;8.582;2022-08-21T10:39:25;5.78;;;2.63;;
24557;SDS011;12726;49.148;8.582;2022-08-21T10:42:20;7.50;;;2.35;;
24557;SDS011;12726;49.148;8.582;2022-08-21T10:45:26;7.35;;;2.83;;
24557;SDS011;12726;49.148;8.582;2022-08-21T10:48:23;6.00;;;2.40;;
24557;SDS011;12726;49.148;8.582;2022-08-21T10:51:14;7.88;;;2.92;;
24557;SDS011;12726;49.148;8.582;2022-08-21T10:54:08;6.65;;;2.10;;
24557;SDS011;12726;49.148;8.582;2022-08-21T10:57:05;6.35;;;2.47;;
24557;SDS011;12726;49.148;8.582;2022-08-21T10:59:58;6.25;;;2.47;;
24557;SDS011;12726;49.148;8.582;2022-08-21T11:02:49;4.45;;;2.45;;
24557;SDS011;12726;49.148;8.582;2022-08-21T11:08:28;6.93;;;2.75;;
24557;SDS011;12726;49.148;8.582;2022-08-21T11:11:22;6.43;;;2.50;;
24557;SDS011;12726;49.148;8.582;2022-08-21T11:14:13;4.77;;;2.40;;
24557;SDS011;12726;49.148;8.582;2022-08-21T11:17:07;7.22;;;2.72;;
24557;SDS011;12726;49.148;8.582;2022-08-21T11:19:57;6.13;;;2.70;;
24557;SDS011;12726;49.148;8.582;2022-08-21T11:25:36;4.53;;;2.40;;
24557;SDS011;12726;49.148;8.582;2022-08-21T11:28:26;4.57;;;2.65;;
24557;SDS011;12726;49.148;8.582;2022-08-21T11:31:19;7.07;;;2.60;;
24557;SDS011;12726;49.148;8.582;2022-08-21T11:34:15;3.05;;;2.08;;
24557;SDS011;12726;49.148;8.582;2022-08-21T11:37:13;7.03;;;2.38;;
24557;SDS011;12726;49.148;8.582;2022-08-21T11:40:09;6.72;;;2.30;;
24557;SDS011;12726;49.148;8.582;2022-08-21T11:43:06;5.57;;;2.45;;
24557;SDS011;12726;49.148;8.582;2022-08-21T11:46:03;7.45;;;2.63;;
24557;SDS011;12726;49.148;8.582;2022-08-21T11:49:01;5.85;;;2.67;;
24557;SDS011;12726;49.148;8.582;2022-08-21T11:52:05;5.82;;;2.10;;
24557;SDS011;12726;49.148;8.582;2022-08-21T11:54:57;4.53;;;2.13;;
24557;SDS011;12726;49.148;8.582;2022-08-21T11:57:46;4.70;;;2.05;;
24557;SDS011;12726;49.148;8.582;2022-08-21T12:00:38;7.82;;;2.35;;
24557;SDS011;12726;49.148;8.582;2022-08-21T12:03:29;5.88;;;2.25;;
24557;SDS011;12726;49.148;8.582;2022-08-21T12:06:27;5.78;;;2.20;;
24557;SDS011;12726;49.148;8.582;2022-08-21T12:09:28;4.30;;;2.38;;
24557;SDS011;12726;49.148;8.582;2022-08-21T12:12:22;6.35;;;2.50;;
24557;SDS011;12726;49.148;8.582;2022-08-21T12:18:21;6.75;;;2.22;;
24557;SDS011;12726;49.148;8.582;2022-08-21T12:21:24;4.22;;;2.20;;
24557;SDS011;12726;49.148;8.582;2022-08-21T12:24:15;5.72;;;2.30;;
24557;SDS011;12726;49.148;8.582;2022-08-21T12:27:13;5.10;;;2.45;;
24557;SDS011;12726;49.148;8.582;2022-08-21T12:30:20;5.35;;;2.25;;
24557;SDS011;12726;49.148;8.582;2022-08-21T12:33:17;4.05;;;2.10;;
24557;SDS011;12726;49.148;8.582;2022-08-21T12:36:09;4.97;;;2.30;;
24557;SDS011;12726;49.148;8.582;2022-08-21T12:38:59;6.50;;;2.42;;
24557;SDS011;12726;49.148;8.582;2022-08-21T12:41:51;4.60;;;2.15;;
24557;SDS011;12726;49.148;8.582;2022-08-21T12:44:43;4.63;;;2.17;;
24557;SDS011;12726;49.148;8.582;2022-08-21T12:47:32;5.75;;;2.15;;
24557;SDS011;12726;49.148;8.582;2022-08-21T12:50:23;5.22;;;2.33;;
24557;SDS011;12726;49.148;8.582;2022-08-21T12:53:15;8.98;;;2.22;;
24557;SDS011;12726;49.148;8.582;2022-08-21T12:56:11;8.60;;;2.72;;
24557;SDS011;12726;49.148;8.582;2022-08-21T12:59:00;5.63;;;2.60;;
24557;SDS011;12726;49.148;8.582;2022-08-21T13:01:49;4.97;;;1.85;;
24557;SDS011;12726;49.148;8.582;2022-08-21T13:04:39;5.53;;;2.00;;
24557;SDS011;12726;49.148;8.582;2022-08-21T13:07:27;5.68;;;2.15;;
24557;SDS011;12726;49.148;8.582;2022-08-21T13:10:18;3.42;;;2.13;;
24557;SDS011;12726;49.148;8.582;2022-08-21T13:13:10;3.83;;;1.95;;
24557;SDS011;12726;49.148;8.582;2022-08-21T13:16:07;5.90;;;2.38;;
24557;SDS011;12726;49.148;8.582;2022-08-21T13:18:54;5.18;;;2.20;;
24557;SDS011;12726;49.148;8.582;2022-08-21T13:21:42;6.18;;;2.33;;
24557;SDS011;12726;49.148;8.582;2022-08-21T13:24:30;5.82;;;2.00;;
24557;SDS011;12726;49.148;8.582;2022-08-21T13:27:20;3.90;;;2.13;;
24557;SDS011;12726;49.148;8.582;2022-08-21T13:33:01;4.07;;;1.92;;
24557;SDS011;12726;49.148;8.582;2022-08-21T13:35:52;5.35;;;1.92;;
24557;SDS011;12726;49.148;8.582;2022-08-21T13:38:46;6.07;;;2.22;;
24557;SDS011;12726;49.148;8.582;2022-08-21T13:41:33;3.53;;;2.05;;
24557;SDS011;12726;49.148;8.582;2022-08-21T13:44:22;4.65;;;1.80;;
24557;SDS011;12726;49.148;8.582;2022-08-21T13:47:13;5.80;;;2.15;;
24557;SDS011;12726;49.148;8.582;2022-08-21T13:50:01;5.65;;;2.17;;
24557;SDS011;12726;49.148;8.582;2022-08-21T13:52:49;3.15;;;1.77;;
24557;SDS011;12726;49.148;8.582;2022-08-21T13:55:40;4.18;;;2.00;;
24557;SDS011;12726;49.148;8.582;2022-08-21T13:58:28;7.20;;;2.45;;
24557;SDS011;12726;49.148;8.582;2022-08-21T14:01:18;5.40;;;2.15;;
24557;SDS011;12726;49.148;8.582;2022-08-21T14:04:14;4.15;;;1.60;;
24557;SDS011;12726;49.148;8.582;2022-08-21T14:07:14;3.60;;;2.15;;
24557;SDS011;12726;49.148;8.582;2022-08-21T14:10:03;3.85;;;1.52;;
24557;SDS011;12726;49.148;8.582;2022-08-21T14:12:50;2.72;;;1.70;;
24557;SDS011;12726;49.148;8.582;2022-08-21T14:15:37;3.28;;;1.73;;
24557;SDS011;12726;49.148;8.582;2022-08-21T14:18:23;8.50;;;2.40;;
24557;SDS011;12726;49.148;8.582;2022-08-21T14:21:12;3.03;;;1.58;;
24557;SDS011;12726;49.148;8.582;2022-08-21T14:24:08;4.50;;;2.13;;
24557;SDS011;12726;49.148;8.582;2022-08-21T14:26:56;3.67;;;1.98;;
24557;SDS011;12726;49.148;8.582;2022-08-21T14:29:46;3.80;;;2.15;;
24557;SDS011;12726;49.148;8.582;2022-08-21T14:32:35;3.70;;;1.63;;
24557;SDS011;12726;49.148;8.582;2022-08-21T14:35:23;4.03;;;1.77;;
24557;SDS011;12726;49.148;8.582;2022-08-21T14:38:13;3.90;;;2.05;;
24557;SDS011;12726;49.148;8.582;2022-08-21T14:41:13;3.67;;;2.08;;
24557;SDS011;12726;49.148;8.582;2022-08-21T14:44:02;4.00;;;1.90;;
24557;SDS011;12726;49.148;8.582;2022-08-21T14:46:48;3.95;;;2.00;;
24557;SDS011;12726;49.148;8.582;2022-08-21T14:49:34;5.22;;;2.25;;
24557;SDS011;12726;49.148;8.582;2022-08-21T14:52:20;3.78;;;2.00;;
24557;SDS011;12726;49.148;8.582;2022-08-21T14:55:08;4.82;;;1.80;;
24557;SDS011;12726;49.148;8.582;2022-08-21T14:57:57;2.72;;;1.80;;
24557;SDS011;12726;49.148;8.582;2022-08-21T15:00:43;4.60;;;1.88;;
24557;SDS011;12726;49.148;8.582;2022-08-21T15:03:28;3.00;;;1.80;;
24557;SDS011;12726;49.148;8.582;2022-08-21T15:06:14;2.55;;;1.65;;
24557;SDS011;12726;49.148;8.582;2022-08-21T15:09:01;3.15;;;1.77;;
24557;SDS011;12726;49.148;8.582;2022-08-21T15:11:50;4.35;;;1.88;;
24557;SDS011;12726;49.148;8.582;2022-08-21T15:14:38;4.85;;;1.67;;
24557;SDS011;12726;49.148;8.582;2022-08-21T15:17:25;3.05;;;1.70;;
24557;SDS011;12726;49.148;8.582;2022-08-21T15:20:11;3.53;;;1.80;;
24557;SDS011;12726;49.148;8.582;2022-08-21T15:22:57;6.18;;;1.83;;
24557;SDS011;12726;49.148;8.582;2022-08-21T15:25:43;3.47;;;1.88;;
24557;SDS011;12726;49.148;8.582;2022-08-21T15:28:32;3.45;;;2.00;;
24557;SDS011;12726;49.148;8.582;2022-08-21T15:31:19;3.10;;;1.75;;
24557;SDS011;12726;49.148;8.582;2022-08-21T15:34:04;2.58;;;1.90;;
24557;SDS011;12726;49.148;8.582;2022-08-21T15:36:50;4.90;;;1.63;;
24557;SDS011;12726;49.148;8.582;2022-08-21T15:39:36;3.55;;;1.80;;
24557;SDS011;12726;49.148;8.582;2022-08-21T15:42:21;4.93;;;1.98;;
24557;SDS011;12726;49.148;8.582;2022-08-21T15:45:11;2.97;;;1.70;;
24557;SDS011;12726;49.148;8.582;2022-08-21T15:47:57;3.70;;;2.00;;
24557;SDS011;12726;49.148;8.582;2022-08-21T15:50:43;2.50;;;1.60;;
24557;SDS011;12726;49.148;8.582;2022-08-21T15:53:29;3.08;;;1.80;;
24557;SDS011;12726;49.148;8.582;2022-08-21T15:56:22;3.53;;;1.80;;
24557;SDS011;12726;49.148;8.582;2022-08-21T15:59:12;4.25;;;1.73;;
24557;SDS011;12726;49.148;8.582;2022-08-21T16:02:01;3.45;;;1.95;;
24557;SDS011;12726;49.148;8.582;2022-08-21T16:04:47;3.75;;;1.60;;
24557;SDS011;12726;49.148;8.582;2022-08-21T16:07:32;5.03;;;1.80;;
24557;SDS011;12726;49.148;8.582;2022-08-21T16:10:19;3.25;;;1.67;;
24557;SDS011;12726;49.148;8.582;2022-08-21T16:13:11;2.78;;;1.60;;
24557;SDS011;12726;49.148;8.582;2022-08-21T16:16:01;2.95;;;1.98;;
24557;SDS011;12726;49.148;8.582;2022-08-21T16:18:48;3.55;;;1.80;;
24557;SDS011;12726;49.148;8.582;2022-08-21T16:21:35;6.32;;;2.00;;
24557;SDS011;12726;49.148;8.582;2022-08-21T16:24:21;3.45;;;1.80;;
24557;SDS011;12726;49.148;8.582;2022-08-21T16:27:07;6.70;;;2.75;;
24557;SDS011;12726;49.148;8.582;2022-08-21T16:29:52;3.33;;;1.70;;
24557;SDS011;12726;49.148;8.582;2022-08-21T16:32:38;4.22;;;2.00;;
24557;SDS011;12726;49.148;8.582;2022-08-21T16:35:25;4.22;;;2.00;;
24557;SDS011;12726;49.148;8.582;2022-08-21T16:38:11;4.18;;;2.03;;
24557;SDS011;12726;49.148;8.582;2022-08-21T16:40:57;2.45;;;1.70;;
24557;SDS011;12726;49.148;8.582;2022-08-21T16:43:44;3.50;;;1.67;;
24557;SDS011;12726;49.148;8.582;2022-08-21T16:46:32;3.95;;;1.90;;
24557;SDS011;12726;49.148;8.582;2022-08-21T16:49:22;4.22;;;1.63;;
24557;SDS011;12726;49.148;8.582;2022-08-21T16:52:09;3.55;;;1.65;;
24557;SDS011;12726;49.148;8.582;2022-08-21T16:54:54;2.75;;;1.77;;
24557;SDS011;12726;49.148;8.582;2022-08-21T16:57:40;4.07;;;1.90;;
24557;SDS011;12726;49.148;8.582;2022-08-21T17:00:26;5.20;;;2.28;;
24557;SDS011;12726;49.148;8.582;2022-08-21T17:03:12;6.13;;;1.60;;
24557;SDS011;12726;49.148;8.582;2022-08-21T17:06:00;3.38;;;1.73;;
24557;SDS011;12726;49.148;8.582;2022-08-21T17:08:48;3.45;;;1.95;;